Stations météo

réclame
Mon MeteoGroup
Threave, Grande-Bretagne (99090): Température de l'air & dewpoint: 06.12.2017 23:00:00 - 12.12.2017 23:00:00 (GMT)Threave, Grande-Bretagne (99090): Température de l'air -20cm & Température de l'air -100cm: 06.12.2017 23:00:00 - 12.12.2017 23:00:00 (GMT)Threave, Grande-Bretagne (99090): Quantités de précipitations: 06.12.2017 23:00:00 - 12.12.2017 23:00:00 (GMT)
Date & Time tt [°C] td [°C] tt -20cm [°C] tt -100cm [°C] rr [mm]
12.12.2017 23:00:00 4,0 3,2 - - 0,0
12.12.2017 22:00:00 4,4 3,4 - - 0,0
12.12.2017 21:00:00 4,6 3,7 - - 0,0
12.12.2017 20:00:00 5,1 4,5 - - 0,8
12.12.2017 19:00:00 4,9 4,4 - - 4,4
12.12.2017 18:00:00 4,1 3,0 - - 2,4
12.12.2017 17:00:00 3,6 2,7 - - 0,2
12.12.2017 16:00:00 2,1 2,0 - - 0,0
12.12.2017 15:00:00 -0,8 -1,2 - - 0,0
12.12.2017 14:00:00 -1,2 -1,7 - - 0,0
12.12.2017 13:00:00 -1,9 -2,4 - - 0,0
12.12.2017 12:00:00 -2,6 -3,1 - - 0,0
12.12.2017 11:00:00 -3,7 -4,1 - - 0,0
12.12.2017 10:00:00 -5,1 -5,7 - - 0,0
12.12.2017 09:00:00 -5,0 -5,6 3,2 7,0 0,0
12.12.2017 08:00:00 -5,0 -5,5 - - 0,0
12.12.2017 07:00:00 -5,9 -6,6 - - 0,0
12.12.2017 06:00:00 -5,6 -6,3 - - 0,0
12.12.2017 05:00:00 -4,5 -5,1 - - 0,0
12.12.2017 04:00:00 -4,7 -5,5 - - 0,0
12.12.2017 03:00:00 -3,8 -4,3 - - 0,0
12.12.2017 02:00:00 -3,6 -4,1 - - 0,0
12.12.2017 01:00:00 -4,0 -4,5 - - 0,0
12.12.2017 00:00:00 -3,5 -3,9 - - 0,0
11.12.2017 23:00:00 -3,6 -4,2 - - 0,0
11.12.2017 22:00:00 -3,0 -3,7 - - 0,0
11.12.2017 21:00:00 -2,5 -3,5 - - 0,0
11.12.2017 20:00:00 -2,9 -3,7 - - 0,0
11.12.2017 19:00:00 -1,3 -2,1 - - 0,0
11.12.2017 18:00:00 -1,1 -2,9 - - 0,0
11.12.2017 17:00:00 1,1 -0,5 - - 0,0
11.12.2017 16:00:00 1,5 -0,6 - - 0,0
11.12.2017 15:00:00 1,1 -0,4 - - 0,0
11.12.2017 14:00:00 -0,1 -1,1 - - 0,0
11.12.2017 13:00:00 -0,3 -2,0 - - 0,0
11.12.2017 12:00:00 -1,3 -2,3 - - 0,0
11.12.2017 11:00:00 -3,1 -3,5 - - 0,0
11.12.2017 10:00:00 -4,8 -5,3 - - 0,0
11.12.2017 09:00:00 -5,6 -6,2 3,7 7,2 0,0
11.12.2017 08:00:00 -7,8 -8,6 - - 0,0
11.12.2017 07:00:00 -8,8 -9,8 - - 0,0
11.12.2017 06:00:00 -8,6 -9,6 - - 0,0
11.12.2017 05:00:00 -8,5 -9,4 - - 0,0
11.12.2017 04:00:00 -8,3 -9,3 - - 0,0
11.12.2017 03:00:00 -8,0 -8,7 - - 0,0
11.12.2017 02:00:00 -8,4 -9,4 - - 0,0
11.12.2017 01:00:00 -8,3 -9,2 - - 0,0
11.12.2017 00:00:00 -8,2 -9,4 - - 0,0
10.12.2017 23:00:00 -7,7 -8,8 - - 0,0
10.12.2017 22:00:00 -6,7 -7,6 - - 0,0
10.12.2017 21:00:00 -6,6 -7,6 - - 0,0
10.12.2017 20:00:00 -5,9 -7,0 - - 0,0
10.12.2017 19:00:00 -5,2 -6,5 - - 0,0
10.12.2017 18:00:00 -4,6 -5,7 - - 0,0
10.12.2017 17:00:00 -4,2 -5,1 - - 0,0
10.12.2017 16:00:00 -4,5 -5,9 - - 0,0
10.12.2017 15:00:00 -3,0 -4,9 - - 0,0
10.12.2017 14:00:00 -2,1 -5,1 - - 0,0
10.12.2017 13:00:00 -1,6 -4,8 - - 0,0
10.12.2017 12:00:00 -0,8 -4,5 - - 0,0
10.12.2017 11:00:00 -1,4 -3,6 - - 0,0
10.12.2017 10:00:00 -3,3 -4,0 - - 0,0
10.12.2017 09:00:00 -4,0 -4,7 4,2 7,4 0,0
10.12.2017 08:00:00 -2,7 -3,2 - - 0,0
10.12.2017 07:00:00 -2,7 -3,2 - - 0,0
10.12.2017 06:00:00 -1,6 -2,0 - - 0,0
10.12.2017 05:00:00 -1,5 -1,7 - - 0,0
10.12.2017 04:00:00 -1,5 -1,8 - - 0,0
10.12.2017 03:00:00 -1,6 -1,9 - - 0,0
10.12.2017 02:00:00 -1,7 -2,0 - - 0,0
10.12.2017 01:00:00 -1,7 -2,0 - - 0,0
10.12.2017 00:00:00 -1,7 -2,0 - - 0,0
09.12.2017 23:00:00 -1,4 -1,8 - - 0,0
09.12.2017 22:00:00 -1,2 -1,6 - - 0,0
09.12.2017 21:00:00 -0,9 -1,2 - - 0,0
09.12.2017 20:00:00 -1,1 -1,3 - - 0,0
09.12.2017 19:00:00 -1,6 -2,0 - - 0,0
09.12.2017 18:00:00 -1,4 -1,7 - - 0,0
09.12.2017 17:00:00 -2,4 -3,1 - - 0,0
09.12.2017 16:00:00 -1,6 -2,5 - - 0,0
09.12.2017 15:00:00 -0,2 -1,1 - - 0,0
09.12.2017 14:00:00 0,7 -0,5 - - 0,0
09.12.2017 13:00:00 0,0 -1,3 - - 0,0
09.12.2017 12:00:00 -1,7 -3,0 - - 0,0
09.12.2017 11:00:00 -1,6 -3,0 - - 0,0
09.12.2017 10:00:00 -2,1 -3,1 - - 0,0
09.12.2017 09:00:00 -2,8 -3,9 4,9 7,5 0,0
09.12.2017 08:00:00 -2,9 -4,1 - - 0,0
09.12.2017 07:00:00 -2,9 -4,0 - - 0,0
09.12.2017 06:00:00 -2,6 -3,7 - - 0,0
09.12.2017 05:00:00 -0,3 -1,8 - - 0,0
09.12.2017 04:00:00 -0,8 -2,7 - - 0,0
09.12.2017 03:00:00 -2,4 -4,8 - - 0,0
09.12.2017 02:00:00 -1,1 -3,4 - - 0,0
09.12.2017 01:00:00 -1,5 -4,0 - - 0,0
09.12.2017 00:00:00 -0,7 -3,7 - - 0,0
08.12.2017 23:00:00 0,8 -3,4 - - 0,0
08.12.2017 22:00:00 1,2 -2,9 - - 0,0
08.12.2017 21:00:00 0,5 -3,4 - - 0,0
08.12.2017 20:00:00 0,4 -3,2 - - 0,0
08.12.2017 19:00:00 0,3 -3,2 - - 0,0
08.12.2017 18:00:00 0,5 -3,1 - - 0,0
08.12.2017 17:00:00 0,5 -3,5 - - 0,0
08.12.2017 16:00:00 0,6 -2,9 - - 0,0
08.12.2017 15:00:00 1,4 -2,9 - - 0,0
08.12.2017 14:00:00 1,5 -2,7 - - 0,0
08.12.2017 13:00:00 0,7 -1,0 - - 0,2
08.12.2017 12:00:00 1,8 -2,6 - - 0,8
08.12.2017 11:00:00 1,2 -3,2 - - 0,0
08.12.2017 10:00:00 0,4 -2,7 - - 0,0
08.12.2017 09:00:00 -0,3 -2,0 5,7 7,5 0,0
08.12.2017 08:00:00 -0,4 -2,5 - - 0,0
08.12.2017 07:00:00 -0,3 -3,3 - - 0,0
08.12.2017 06:00:00 0,2 -2,4 - - 0,0
08.12.2017 05:00:00 0,2 -2,3 - - 0,0
08.12.2017 04:00:00 0,3 -0,4 - - 0,0
08.12.2017 03:00:00 -0,3 -1,3 - - 0,0
08.12.2017 02:00:00 1,5 -0,9 - - 0,0
08.12.2017 01:00:00 1,7 -0,9 - - 0,0
08.12.2017 00:00:00 0,9 -0,7 - - 0,0
07.12.2017 23:00:00 1,1 -0,4 - - 0,2
07.12.2017 22:00:00 1,7 0,2 - - 0,0
07.12.2017 21:00:00 1,9 0,9 - - 0,4
07.12.2017 20:00:00 1,4 0,4 - - 0,8
07.12.2017 19:00:00 0,9 0,0 - - 0,2
07.12.2017 18:00:00 2,2 0,9 - - 1,2
07.12.2017 17:00:00 2,3 1,2 - - 1,2
07.12.2017 16:00:00 2,4 1,2 - - 0,4
07.12.2017 15:00:00 3,3 1,7 - - 0,4
07.12.2017 14:00:00 4,3 1,8 - - 0,2
07.12.2017 13:00:00 4,6 2,3 - - 0,2
07.12.2017 12:00:00 6,1 2,9 - - 0,0
07.12.2017 11:00:00 6,3 3,1 - - 0,2
07.12.2017 10:00:00 5,8 3,9 - - 0,4
07.12.2017 09:00:00 6,2 3,5 6,4 7,2 0,0
07.12.2017 08:00:00 6,7 3,1 - - 0,0
07.12.2017 07:00:00 6,7 2,5 - - 0,0
07.12.2017 06:00:00 6,9 2,4 - - 0,0
07.12.2017 05:00:00 7,5 4,4 - - 0,2
07.12.2017 04:00:00 9,3 7,6 - - 3,0
07.12.2017 03:00:00 12,0 11,4 - - 1,8
07.12.2017 02:00:00 11,9 11,2 - - 3,0
07.12.2017 01:00:00 12,3 11,4 - - 0,6
07.12.2017 00:00:00 11,9 11,1 - - 0,0
06.12.2017 23:00:00 11,4 10,8 - - 0,4

tt = Température de l'air
td = dewpoint
tt -20cm = Température de l'air -20cm
tt -100cm = Température de l'air -100cm
rr = Quantités de précipitations

stations d'obs. à proximité